GFA541 OMAA-OBBI
Flight info
| Callsign | GFA541 |
|---|---|
| Flight time | 0h 44m |
| Altitude | 26000 |
| Route | BOSEV1K BOSEV N563 IMGUX P699 ORMID M556 ORDIG ORDIG1 |
| Aircraft | A20N/M-SDE2E3FGHIRWXY/LB1 |
Departure
| Time | 2026-05-08 20:14 |
|---|---|
| Airport | Zayed International Airport (OMAA) |
Arrival
| Time | 2026-05-08 20:59 |
|---|---|
| Airport | Bahrain International Airport (OBBI) |
| Time | Latitude | Longitude | Altitude | Speed | Heading |
|---|---|---|---|---|---|
| 2026-05-08 19:54 | 24.44644 | 54.64478 | 76 ft | 0 kts | 232° |
| 2026-05-08 19:59 | 24.44652 | 54.64490 | 76 ft | 2 kts | 232° |
| 2026-05-08 20:00 | 24.44662 | 54.64504 | 61 ft | 2 kts | 232° |
| 2026-05-08 20:00 | 24.44672 | 54.64518 | 66 ft | 2 kts | 232° |
| 2026-05-08 20:00 | 24.44682 | 54.64532 | 70 ft | 2 kts | 232° |
| 2026-05-08 20:00 | 24.44692 | 54.64546 | 65 ft | 2 kts | 232° |
| 2026-05-08 20:01 | 24.44702 | 54.64561 | 65 ft | 2 kts | 213° |
| 2026-05-08 20:01 | 24.44717 | 54.64563 | 65 ft | 2 kts | 153° |
| 2026-05-08 20:01 | 24.44723 | 54.64559 | 65 ft | 0 kts | 147° |
| 2026-05-08 20:03 | 24.44720 | 54.64561 | 65 ft | 2 kts | 147° |
| 2026-05-08 20:03 | 24.44697 | 54.64578 | 71 ft | 6 kts | 144° |
| 2026-05-08 20:03 | 24.44655 | 54.64622 | 70 ft | 10 kts | 131° |
| 2026-05-08 20:03 | 24.44603 | 54.64695 | 74 ft | 14 kts | 126° |
| 2026-05-08 20:04 | 24.44607 | 54.64795 | 69 ft | 2 kts | 72° |
| 2026-05-08 20:04 | 24.44605 | 54.64807 | 76 ft | 3 kts | 102° |
| 2026-05-08 20:04 | 24.44589 | 54.64843 | 72 ft | 7 kts | 126° |
| 2026-05-08 20:04 | 24.44550 | 54.64901 | 76 ft | 12 kts | 126° |
| 2026-05-08 20:05 | 24.44491 | 54.64982 | 67 ft | 15 kts | 130° |
| 2026-05-08 20:05 | 24.44416 | 54.65089 | 73 ft | 19 kts | 118° |
| 2026-05-08 20:05 | 24.44491 | 54.65198 | 76 ft | 23 kts | 38° |
| 2026-05-08 20:05 | 24.44604 | 54.65294 | 76 ft | 20 kts | 37° |
| 2026-05-08 20:06 | 24.44713 | 54.65386 | 73 ft | 20 kts | 39° |
| 2026-05-08 20:06 | 24.44795 | 54.65496 | 73 ft | 17 kts | 87° |
| 2026-05-08 20:06 | 24.44728 | 54.65512 | 76 ft | 11 kts | 208° |
| 2026-05-08 20:06 | 24.44633 | 54.65441 | 71 ft | 22 kts | 217° |
| 2026-05-08 20:07 | 24.44507 | 54.65334 | 73 ft | 23 kts | 218° |
| 2026-05-08 20:07 | 24.44374 | 54.65221 | 71 ft | 25 kts | 218° |
| 2026-05-08 20:07 | 24.44236 | 54.65103 | 71 ft | 26 kts | 218° |
| 2026-05-08 20:07 | 24.44094 | 54.64980 | 76 ft | 27 kts | 219° |
| 2026-05-08 20:08 | 24.43954 | 54.64857 | 76 ft | 24 kts | 218° |
| 2026-05-08 20:08 | 24.43840 | 54.64768 | 71 ft | 16 kts | 213° |
| 2026-05-08 20:08 | 24.43766 | 54.64745 | 69 ft | 4 kts | 119° |
| 2026-05-08 20:08 | 24.43758 | 54.64779 | 73 ft | 10 kts | 110° |
| 2026-05-08 20:09 | 24.43690 | 54.64886 | 76 ft | 16 kts | 127° |
| 2026-05-08 20:09 | 24.43621 | 54.64982 | 74 ft | 25 kts | 128° |
| 2026-05-08 20:09 | 24.43515 | 54.65130 | 76 ft | 23 kts | 128° |
| 2026-05-08 20:09 | 24.43427 | 54.65252 | 74 ft | 18 kts | 126° |
| 2026-05-08 20:10 | 24.43360 | 54.65351 | 72 ft | 23 kts | 128° |
| 2026-05-08 20:10 | 24.43247 | 54.65508 | 71 ft | 25 kts | 128° |
| 2026-05-08 20:10 | 24.43148 | 54.65644 | 73 ft | 21 kts | 129° |
| 2026-05-08 20:10 | 24.43073 | 54.65754 | 76 ft | 15 kts | 127° |
| 2026-05-08 20:11 | 24.43026 | 54.65821 | 76 ft | 9 kts | 128° |
| 2026-05-08 20:11 | 24.42935 | 54.65948 | 73 ft | 25 kts | 128° |
| 2026-05-08 20:11 | 24.42835 | 54.66090 | 74 ft | 21 kts | 128° |
| 2026-05-08 20:11 | 24.42754 | 54.66203 | 76 ft | 17 kts | 128° |
| 2026-05-08 20:12 | 24.42663 | 54.66331 | 71 ft | 23 kts | 128° |
| 2026-05-08 20:12 | 24.42575 | 54.66456 | 69 ft | 18 kts | 127° |
| 2026-05-08 20:12 | 24.42515 | 54.66543 | 70 ft | 11 kts | 127° |
| 2026-05-08 20:12 | 24.42442 | 54.66644 | 75 ft | 25 kts | 128° |
| 2026-05-08 20:13 | 24.42357 | 54.66728 | 76 ft | 3 kts | 207° |
| 2026-05-08 20:13 | 24.42316 | 54.66686 | 76 ft | 18 kts | 223° |
| 2026-05-08 20:13 | 24.42273 | 54.66596 | 84 ft | 11 kts | 277° |
| 2026-05-08 20:13 | 24.42310 | 54.66519 | 83 ft | 11 kts | 307° |
| 2026-05-08 20:14 | 24.42384 | 54.66414 | 84 ft | 41 kts | 307° |
| 2026-05-08 20:14 | 24.42750 | 54.65893 | 85 ft | 129 kts | 308° |
| 2026-05-08 20:14 | 24.43443 | 54.64935 | 333 ft | 176 kts | 308° |
| 2026-05-08 20:14 | 24.44302 | 54.63863 | 1066 ft | 190 kts | 313° |
| 2026-05-08 20:15 | 24.45183 | 54.62712 | 1511 ft | 206 kts | 310° |
| 2026-05-08 20:15 | 24.46107 | 54.61380 | 1793 ft | 230 kts | 309° |
| 2026-05-08 20:15 | 24.47111 | 54.59913 | 2301 ft | 248 kts | 308° |
| 2026-05-08 20:15 | 24.48159 | 54.58384 | 3069 ft | 253 kts | 307° |
| 2026-05-08 20:16 | 24.49237 | 54.56824 | 3836 ft | 258 kts | 308° |
| 2026-05-08 20:16 | 24.50338 | 54.55240 | 4621 ft | 263 kts | 308° |
| 2026-05-08 20:16 | 24.51469 | 54.53623 | 5389 ft | 269 kts | 308° |
| 2026-05-08 20:16 | 24.52621 | 54.51984 | 6184 ft | 274 kts | 308° |
| 2026-05-08 20:17 | 24.53781 | 54.50338 | 6917 ft | 277 kts | 307° |
| 2026-05-08 20:17 | 24.54974 | 54.48649 | 7677 ft | 281 kts | 307° |
| 2026-05-08 20:17 | 24.56184 | 54.46936 | 8436 ft | 285 kts | 306° |
| 2026-05-08 20:17 | 24.57411 | 54.45197 | 9223 ft | 289 kts | 306° |
| 2026-05-08 20:18 | 24.58655 | 54.43436 | 9960 ft | 294 kts | 305° |
| 2026-05-08 20:18 | 24.59494 | 54.42246 | 10294 ft | 303 kts | 305° |
| 2026-05-08 20:18 | 24.60838 | 54.40337 | 10510 ft | 326 kts | 305° |
| 2026-05-08 20:18 | 24.62276 | 54.38295 | 10686 ft | 349 kts | 305° |
| 2026-05-08 20:19 | 24.63820 | 54.36111 | 10816 ft | 372 kts | 306° |
| 2026-05-08 20:19 | 24.65454 | 54.33805 | 10949 ft | 392 kts | 306° |
| 2026-05-08 20:19 | 24.67181 | 54.31379 | 11308 ft | 403 kts | 306° |
| 2026-05-08 20:19 | 24.68931 | 54.28916 | 11624 ft | 414 kts | 306° |
| 2026-05-08 20:20 | 24.70726 | 54.26385 | 12078 ft | 421 kts | 305° |
| 2026-05-08 20:20 | 24.72538 | 54.23826 | 12595 ft | 427 kts | 305° |
| 2026-05-08 20:20 | 24.74372 | 54.21233 | 13118 ft | 432 kts | 305° |
| 2026-05-08 20:20 | 24.76235 | 54.18596 | 13639 ft | 437 kts | 305° |
| 2026-05-08 20:21 | 24.78112 | 54.15939 | 14124 ft | 441 kts | 305° |
| 2026-05-08 20:21 | 24.80004 | 54.13258 | 14636 ft | 444 kts | 306° |
| 2026-05-08 20:21 | 24.81905 | 54.10566 | 15145 ft | 446 kts | 306° |
| 2026-05-08 20:21 | 24.83788 | 54.07839 | 15629 ft | 447 kts | 302° |
| 2026-05-08 20:22 | 24.85440 | 54.04926 | 16090 ft | 449 kts | 300° |
| 2026-05-08 20:22 | 24.87085 | 54.01994 | 16557 ft | 451 kts | 300° |
| 2026-05-08 20:22 | 24.88743 | 53.99040 | 16981 ft | 454 kts | 300° |
| 2026-05-08 20:22 | 24.90388 | 53.96108 | 17381 ft | 457 kts | 300° |
| 2026-05-08 20:23 | 24.92068 | 53.93111 | 17793 ft | 459 kts | 300° |
| 2026-05-08 20:23 | 24.93749 | 53.90109 | 18167 ft | 462 kts | 300° |
| 2026-05-08 20:23 | 24.95439 | 53.87089 | 18505 ft | 464 kts | 300° |
| 2026-05-08 20:23 | 24.97133 | 53.84050 | 18852 ft | 465 kts | 300° |
| 2026-05-08 20:24 | 24.98833 | 53.80998 | 19195 ft | 466 kts | 300° |
| 2026-05-08 20:24 | 25.00538 | 53.77948 | 19531 ft | 468 kts | 300° |
| 2026-05-08 20:24 | 25.02468 | 53.75044 | 19849 ft | 472 kts | 310° |
| 2026-05-08 20:24 | 25.04808 | 53.72465 | 20160 ft | 474 kts | 314° |
| 2026-05-08 20:25 | 25.07182 | 53.69922 | 20451 ft | 476 kts | 314° |
| 2026-05-08 20:25 | 25.09564 | 53.67376 | 20735 ft | 477 kts | 314° |
| 2026-05-08 20:25 | 25.11958 | 53.64816 | 21014 ft | 479 kts | 313° |
| 2026-05-08 20:25 | 25.14352 | 53.62251 | 21297 ft | 480 kts | 313° |
| 2026-05-08 20:26 | 25.16751 | 53.59676 | 21559 ft | 481 kts | 313° |
| 2026-05-08 20:26 | 25.19188 | 53.57059 | 21823 ft | 483 kts | 313° |
| 2026-05-08 20:26 | 25.21599 | 53.54467 | 22075 ft | 484 kts | 313° |
| 2026-05-08 20:26 | 25.23984 | 53.51894 | 22309 ft | 485 kts | 313° |
| 2026-05-08 20:27 | 25.26406 | 53.49275 | 22543 ft | 486 kts | 313° |
| 2026-05-08 20:27 | 25.28828 | 53.46661 | 22768 ft | 487 kts | 313° |
| 2026-05-08 20:27 | 25.31296 | 53.44004 | 22990 ft | 489 kts | 313° |
| 2026-05-08 20:27 | 25.33735 | 53.41381 | 23198 ft | 489 kts | 313° |
| 2026-05-08 20:28 | 25.36151 | 53.38779 | 23392 ft | 490 kts | 313° |
| 2026-05-08 20:28 | 25.38598 | 53.36139 | 23550 ft | 491 kts | 313° |
| 2026-05-08 20:28 | 25.41046 | 53.33492 | 23693 ft | 492 kts | 313° |
| 2026-05-08 20:28 | 25.43506 | 53.30833 | 23827 ft | 492 kts | 313° |
| 2026-05-08 20:29 | 25.45960 | 53.28178 | 23952 ft | 493 kts | 312° |
| 2026-05-08 20:29 | 25.48159 | 53.25339 | 24066 ft | 489 kts | 302° |
| 2026-05-08 20:29 | 25.49826 | 53.22082 | 24177 ft | 485 kts | 291° |
| 2026-05-08 20:29 | 25.50872 | 53.18548 | 24290 ft | 480 kts | 281° |
| 2026-05-08 20:30 | 25.51624 | 53.14939 | 24404 ft | 480 kts | 280° |
| 2026-05-08 20:30 | 25.52365 | 53.11327 | 24515 ft | 480 kts | 280° |
| 2026-05-08 20:30 | 25.53099 | 53.07707 | 24634 ft | 480 kts | 280° |
| 2026-05-08 20:30 | 25.53830 | 53.04095 | 24745 ft | 480 kts | 280° |
| 2026-05-08 20:31 | 25.54560 | 53.00483 | 24867 ft | 480 kts | 280° |
| 2026-05-08 20:31 | 25.55288 | 52.96910 | 24979 ft | 480 kts | 280° |
| 2026-05-08 20:31 | 25.56030 | 52.93302 | 25095 ft | 480 kts | 281° |
| 2026-05-08 20:31 | 25.57114 | 52.89768 | 25209 ft | 485 kts | 291° |
| 2026-05-08 20:32 | 25.58659 | 52.86489 | 25329 ft | 486 kts | 295° |
| 2026-05-08 20:32 | 25.60273 | 52.83183 | 25440 ft | 486 kts | 295° |
| 2026-05-08 20:32 | 25.61897 | 52.79873 | 25577 ft | 486 kts | 295° |
| 2026-05-08 20:32 | 25.63515 | 52.76573 | 25687 ft | 486 kts | 295° |
| 2026-05-08 20:33 | 25.65144 | 52.73238 | 25825 ft | 486 kts | 295° |
| 2026-05-08 20:33 | 25.66757 | 52.69925 | 25861 ft | 488 kts | 295° |
| 2026-05-08 20:33 | 25.68369 | 52.66607 | 25856 ft | 489 kts | 295° |
| 2026-05-08 20:33 | 25.69986 | 52.63278 | 25858 ft | 489 kts | 295° |
| 2026-05-08 20:34 | 25.71601 | 52.59953 | 25856 ft | 490 kts | 295° |
| 2026-05-08 20:34 | 25.73205 | 52.56657 | 25859 ft | 490 kts | 294° |
| 2026-05-08 20:34 | 25.76458 | 52.49961 | 25861 ft | 490 kts | 294° |
| 2026-05-08 20:35 | 25.78057 | 52.46610 | 25858 ft | 490 kts | 294° |
| 2026-05-08 20:35 | 25.79630 | 52.43240 | 25859 ft | 490 kts | 293° |
| 2026-05-08 20:35 | 25.81178 | 52.39872 | 25863 ft | 490 kts | 293° |
| 2026-05-08 20:35 | 25.82720 | 52.36492 | 25860 ft | 490 kts | 293° |
| 2026-05-08 20:36 | 25.84261 | 52.33120 | 25865 ft | 490 kts | 293° |
| 2026-05-08 20:36 | 25.85809 | 52.29752 | 25862 ft | 490 kts | 293° |
| 2026-05-08 20:36 | 25.87587 | 52.26549 | 25863 ft | 496 kts | 303° |
| 2026-05-08 20:36 | 25.89888 | 52.23662 | 25858 ft | 499 kts | 309° |
| 2026-05-08 20:37 | 25.92297 | 52.20777 | 25855 ft | 498 kts | 309° |
| 2026-05-08 20:37 | 25.94636 | 52.17967 | 25853 ft | 499 kts | 308° |
| 2026-05-08 20:37 | 25.96987 | 52.15132 | 25856 ft | 499 kts | 308° |
| 2026-05-08 20:37 | 25.99315 | 52.12310 | 25854 ft | 499 kts | 308° |
| 2026-05-08 20:38 | 26.01657 | 52.09464 | 25854 ft | 499 kts | 308° |
| 2026-05-08 20:38 | 26.04000 | 52.06618 | 25855 ft | 499 kts | 308° |
| 2026-05-08 20:38 | 26.06353 | 52.03766 | 25858 ft | 499 kts | 308° |
| 2026-05-08 20:38 | 26.08703 | 52.00918 | 25858 ft | 499 kts | 308° |
| 2026-05-08 20:39 | 26.11052 | 51.98068 | 25858 ft | 499 kts | 308° |
| 2026-05-08 20:39 | 26.13402 | 51.95216 | 25861 ft | 499 kts | 308° |
| 2026-05-08 20:39 | 26.15750 | 51.92367 | 25862 ft | 499 kts | 308° |
| 2026-05-08 20:39 | 26.18102 | 51.89514 | 25859 ft | 499 kts | 308° |
| 2026-05-08 20:40 | 26.20449 | 51.86666 | 25862 ft | 499 kts | 308° |
| 2026-05-08 20:40 | 26.22826 | 51.83776 | 25863 ft | 499 kts | 308° |
| 2026-05-08 20:40 | 26.25034 | 51.80805 | 25856 ft | 493 kts | 300° |
| 2026-05-08 20:40 | 26.26708 | 51.77501 | 25869 ft | 488 kts | 292° |
| 2026-05-08 20:41 | 26.28215 | 51.74112 | 25872 ft | 488 kts | 292° |
| 2026-05-08 20:41 | 26.29215 | 51.71861 | 25873 ft | 488 kts | 292° |
| 2026-05-08 20:41 | 26.30739 | 51.68432 | 25875 ft | 488 kts | 292° |
| 2026-05-08 20:41 | 26.32246 | 51.65044 | 25864 ft | 487 kts | 292° |
| 2026-05-08 20:42 | 26.33754 | 51.61655 | 25881 ft | 487 kts | 292° |
| 2026-05-08 20:42 | 26.35265 | 51.58261 | 25881 ft | 487 kts | 292° |
| 2026-05-08 20:42 | 26.36759 | 51.54911 | 25879 ft | 472 kts | 291° |
| 2026-05-08 20:42 | 26.38100 | 51.51677 | 25801 ft | 446 kts | 285° |
| 2026-05-08 20:43 | 26.39137 | 51.48484 | 25682 ft | 427 kts | 285° |
| 2026-05-08 20:43 | 26.40123 | 51.45425 | 25566 ft | 411 kts | 284° |
| 2026-05-08 20:43 | 26.41066 | 51.42476 | 25323 ft | 399 kts | 284° |
| 2026-05-08 20:43 | 26.41988 | 51.39571 | 24900 ft | 394 kts | 284° |
| 2026-05-08 20:44 | 26.42895 | 51.36703 | 24443 ft | 391 kts | 284° |
| 2026-05-08 20:44 | 26.43799 | 51.33847 | 23972 ft | 388 kts | 285° |
| 2026-05-08 20:44 | 26.44668 | 51.30967 | 23515 ft | 383 kts | 280° |
| 2026-05-08 20:44 | 26.45089 | 51.28062 | 22983 ft | 376 kts | 269° |
| 2026-05-08 20:45 | 26.44999 | 51.25207 | 22463 ft | 370 kts | 259° |
| 2026-05-08 20:45 | 26.44430 | 51.22433 | 21934 ft | 365 kts | 250° |
| 2026-05-08 20:45 | 26.43493 | 51.19783 | 21184 ft | 369 kts | 246° |
| 2026-05-08 20:45 | 26.42498 | 51.17118 | 20453 ft | 374 kts | 246° |
| 2026-05-08 20:46 | 26.41487 | 51.14420 | 19746 ft | 378 kts | 246° |
| 2026-05-08 20:46 | 26.40497 | 51.11771 | 19052 ft | 371 kts | 246° |
| 2026-05-08 20:46 | 26.39518 | 51.09148 | 18375 ft | 362 kts | 246° |
| 2026-05-08 20:46 | 26.38562 | 51.06576 | 17633 ft | 356 kts | 246° |
| 2026-05-08 20:47 | 26.37596 | 51.03974 | 16861 ft | 361 kts | 246° |
| 2026-05-08 20:47 | 26.36626 | 51.01361 | 16123 ft | 366 kts | 247° |
| 2026-05-08 20:47 | 26.35642 | 50.98719 | 15397 ft | 371 kts | 247° |
| 2026-05-08 20:47 | 26.34652 | 50.96072 | 14679 ft | 366 kts | 247° |
| 2026-05-08 20:48 | 26.33695 | 50.93492 | 13999 ft | 355 kts | 249° |
| 2026-05-08 20:48 | 26.33226 | 50.90805 | 13249 ft | 346 kts | 271° |
| 2026-05-08 20:48 | 26.33582 | 50.88188 | 12503 ft | 338 kts | 280° |
| 2026-05-08 20:48 | 26.33623 | 50.85618 | 11697 ft | 330 kts | 257° |
| 2026-05-08 20:49 | 26.32605 | 50.83355 | 10864 ft | 329 kts | 230° |
| 2026-05-08 20:49 | 26.30797 | 50.81797 | 10042 ft | 329 kts | 211° |
| 2026-05-08 20:49 | 26.28684 | 50.80828 | 9184 ft | 329 kts | 198° |
| 2026-05-08 20:49 | 26.26469 | 50.80234 | 8321 ft | 325 kts | 196° |
| 2026-05-08 20:50 | 26.24283 | 50.79628 | 7479 ft | 322 kts | 197° |
| 2026-05-08 20:50 | 26.23216 | 50.79324 | 7073 ft | 320 kts | 197° |
| 2026-05-08 20:50 | 26.21093 | 50.78617 | 6255 ft | 316 kts | 199° |
| 2026-05-08 20:51 | 26.18966 | 50.78014 | 5406 ft | 315 kts | 195° |
| 2026-05-08 20:51 | 26.16825 | 50.77492 | 4575 ft | 313 kts | 195° |
| 2026-05-08 20:51 | 26.14694 | 50.77014 | 3722 ft | 311 kts | 194° |
| 2026-05-08 20:51 | 26.12547 | 50.76725 | 2880 ft | 312 kts | 178° |
| 2026-05-08 20:52 | 26.10462 | 50.77351 | 2051 ft | 311 kts | 150° |
| 2026-05-08 20:52 | 26.08832 | 50.78811 | 1651 ft | 291 kts | 133° |
| 2026-05-08 20:52 | 26.07739 | 50.80544 | 1519 ft | 259 kts | 105° |
| 2026-05-08 20:52 | 26.07557 | 50.82387 | 1485 ft | 220 kts | 70° |
| 2026-05-08 20:53 | 26.08202 | 50.83753 | 1494 ft | 188 kts | 35° |
| 2026-05-08 20:53 | 26.09330 | 50.84274 | 1492 ft | 174 kts | 356° |
| 2026-05-08 20:53 | 26.10476 | 50.83925 | 1495 ft | 172 kts | 334° |
| 2026-05-08 20:53 | 26.11489 | 50.83228 | 1496 ft | 172 kts | 324° |
| 2026-05-08 20:54 | 26.12456 | 50.82409 | 1498 ft | 172 kts | 323° |
| 2026-05-08 20:54 | 26.13409 | 50.81624 | 1496 ft | 172 kts | 328° |
| 2026-05-08 20:54 | 26.14414 | 50.80894 | 1498 ft | 172 kts | 328° |
| 2026-05-08 20:54 | 26.15421 | 50.80166 | 1503 ft | 172 kts | 328° |
| 2026-05-08 20:55 | 26.16427 | 50.79436 | 1502 ft | 172 kts | 328° |
| 2026-05-08 20:55 | 26.17431 | 50.78705 | 1504 ft | 172 kts | 328° |
| 2026-05-08 20:55 | 26.18432 | 50.77972 | 1507 ft | 172 kts | 326° |
| 2026-05-08 20:55 | 26.19219 | 50.76953 | 1502 ft | 171 kts | 304° |
| 2026-05-08 20:56 | 26.19834 | 50.75873 | 1541 ft | 158 kts | 307° |
| 2026-05-08 20:56 | 26.20427 | 50.74865 | 1514 ft | 154 kts | 306° |
| 2026-05-08 20:56 | 26.21007 | 50.73870 | 1505 ft | 152 kts | 306° |
| 2026-05-08 20:56 | 26.21587 | 50.72873 | 1500 ft | 157 kts | 306° |
| 2026-05-08 20:57 | 26.22172 | 50.71862 | 1371 ft | 151 kts | 306° |
| 2026-05-08 20:57 | 26.22730 | 50.70897 | 1228 ft | 145 kts | 306° |
| 2026-05-08 20:57 | 26.23261 | 50.69978 | 1058 ft | 136 kts | 307° |
| 2026-05-08 20:57 | 26.23764 | 50.69109 | 901 ft | 132 kts | 306° |
| 2026-05-08 20:58 | 26.24262 | 50.68249 | 783 ft | 132 kts | 305° |
| 2026-05-08 20:58 | 26.24759 | 50.67389 | 609 ft | 132 kts | 305° |
| 2026-05-08 20:58 | 26.25255 | 50.66536 | 437 ft | 129 kts | 303° |
| 2026-05-08 20:58 | 26.25739 | 50.65713 | 285 ft | 126 kts | 303° |
| 2026-05-08 20:59 | 26.26205 | 50.64885 | 94 ft | 126 kts | 301° |
| 2026-05-08 20:59 | 26.26636 | 50.64096 | 28 ft | 83 kts | 303° |
| 2026-05-08 20:59 | 26.26814 | 50.63822 | 26 ft | 35 kts | 302° |
| 2026-05-08 20:59 | 26.26966 | 50.63558 | 24 ft | 32 kts | 299° |
| 2026-05-08 21:00 | 26.26938 | 50.63472 | 23 ft | 5 kts | 212° |
| 2026-05-08 21:00 | 26.26913 | 50.63454 | 20 ft | 8 kts | 212° |
| 2026-05-08 21:00 | 26.26839 | 50.63396 | 16 ft | 11 kts | 196° |
| 2026-05-08 21:00 | 26.26804 | 50.63366 | 18 ft | 9 kts | 236° |
| 2026-05-08 21:01 | 26.26805 | 50.63280 | 18 ft | 15 kts | 295° |
| 2026-05-08 21:01 | 26.26822 | 50.63192 | 18 ft | 8 kts | 212° |
| 2026-05-08 21:01 | 26.26782 | 50.63162 | 19 ft | 6 kts | 213° |
| 2026-05-08 21:01 | 26.26762 | 50.63148 | 19 ft | 1 kts | 212° |
| 2026-05-08 21:02 | 26.26756 | 50.63144 | 20 ft | 0 kts | 212° |